Time;durP1;ratioP1;P1;durP2;ratioP2;P2;SDS_P1;SDS_P2;PMS_P1;PMS_P2;Temp;Humidity;BMP_temperature;BMP_pressure;BME280_temperature;BME280_humidity;BME280_pressure;Samples;Min_cycle;Max_cycle;Signal;HPM_P1;HPM_P2
2023/03/01 00:00:21;;;;;;;1999.90;999.90;;;0.40;99.90;;;;;;5015407;28;20022;-68
2023/03/01 00:02:46;;;;;;;1999.90;999.90;;;0.30;99.90;;;;;;5015691;28;20076;-68
2023/03/01 00:05:12;;;;;;;1999.90;999.90;;;0.30;99.90;;;;;;4996121;28;20442;-68
2023/03/01 00:07:38;;;;;;;1999.90;999.90;;;0.30;99.90;;;;;;5010348;28;20046;-79
2023/03/01 00:10:03;;;;;;;1999.90;999.90;;;0.30;99.90;;;;;;4995703;28;20058;-68
2023/03/01 00:12:30;;;;;;;1999.90;999.90;;;0.20;99.90;;;;;;4995859;28;20109;-68
2023/03/01 00:14:56;;;;;;;1999.90;999.90;;;0.20;99.90;;;;;;4995724;28;20077;-70
2023/03/01 00:17:21;;;;;;;1999.90;999.90;;;0.20;99.90;;;;;;5026879;28;20030;-69
2023/03/01 00:19:47;;;;;;;1999.90;999.90;;;0.20;99.90;;;;;;4995470;28;20062;-79
2023/03/01 00:22:13;;;;;;;1999.90;999.90;;;0.20;99.90;;;;;;4995428;28;20026;-68
2023/03/01 00:24:38;;;;;;;1999.90;999.90;;;0.30;99.90;;;;;;4995519;28;20030;-68
2023/03/01 00:27:04;;;;;;;1999.90;999.90;;;0.30;99.90;;;;;;4995414;28;20030;-69
2023/03/01 00:29:29;;;;;;;1999.90;999.90;;;0.30;99.90;;;;;;4994977;28;20474;-68
2023/03/01 00:31:55;;;;;;;1999.90;999.90;;;0.30;99.90;;;;;;4995180;28;20030;-68
2023/03/01 00:34:20;;;;;;;1999.90;999.90;;;0.30;99.90;;;;;;4995209;28;20485;-79
2023/03/01 00:36:46;;;;;;;1999.90;999.90;;;0.40;99.90;;;;;;4995474;28;20090;-79
2023/03/01 00:39:14;;;;;;;1999.90;999.90;;;0.30;99.90;;;;;;5009432;28;20480;-68
2023/03/01 00:41:41;;;;;;;1999.90;999.90;;;0.40;99.90;;;;;;5034382;28;20033;-68
2023/03/01 00:44:06;;;;;;;1999.90;999.90;;;0.40;99.90;;;;;;5034263;28;20033;-69
2023/03/01 00:46:33;;;;;;;1999.90;999.90;;;0.40;99.90;;;;;;5020328;28;20053;-79
2023/03/01 00:49:01;;;;;;;1999.90;999.90;;;0.40;99.90;;;;;;5014081;28;20083;-78
2023/03/01 00:51:28;;;;;;;1999.90;999.90;;;0.40;99.90;;;;;;5014433;28;20018;-68
2023/03/01 00:53:56;;;;;;;1999.90;999.90;;;0.30;99.90;;;;;;5013163;28;20034;-68
2023/03/01 00:56:22;;;;;;;1999.90;999.90;;;0.30;99.90;;;;;;5013881;28;20485;-68
2023/03/01 00:58:47;;;;;;;1999.90;999.90;;;0.30;99.90;;;;;;5014492;28;20045;-68
2023/03/01 01:01:19;;;;;;;1999.90;999.90;;;0.30;99.90;;;;;;5014346;28;20022;-79
2023/03/01 01:03:49;;;;;;;1999.90;999.90;;;0.20;99.90;;;;;;5007002;28;20031;-69
2023/03/01 01:06:24;;;;;;;1999.90;999.90;;;0.20;99.90;;;;;;4994515;28;20026;-68
2023/03/01 01:08:51;;;;;;;1999.90;999.90;;;0.30;99.90;;;;;;4994534;28;20045;-68
2023/03/01 01:11:17;;;;;;;1999.90;999.90;;;0.30;99.90;;;;;;4994430;28;20054;-68
2023/03/01 01:13:45;;;;;;;1999.90;999.90;;;0.20;99.90;;;;;;4994783;28;20089;-79
2023/03/01 01:16:12;;;;;;;1999.90;999.90;;;0.20;99.90;;;;;;4994044;28;20054;-79
2023/03/01 01:18:38;;;;;;;1999.90;999.90;;;0.20;99.90;;;;;;4994683;28;20063;-68
2023/03/01 01:21:09;;;;;;;1999.90;999.90;;;0.20;99.90;;;;;;4994438;28;20030;-68
2023/03/01 01:23:36;;;;;;;1999.90;999.90;;;0.30;99.90;;;;;;5025735;28;20401;-68
2023/03/01 01:26:13;;;;;;;1999.90;999.90;;;0.30;99.90;;;;;;4994179;28;20085;-79
2023/03/01 01:28:39;;;;;;;1999.90;999.90;;;0.40;99.90;;;;;;4994219;28;20054;-79
2023/03/01 01:31:05;;;;;;;1999.90;999.90;;;0.40;99.90;;;;;;4994436;28;20119;-68
2023/03/01 01:33:31;;;;;;;1999.90;999.90;;;0.40;99.90;;;;;;4993999;28;20444;-68
2023/03/01 01:35:57;;;;;;;1999.90;999.90;;;0.40;99.90;;;;;;4994044;28;20018;-68
2023/03/01 01:38:22;;;;;;;1999.90;999.90;;;0.40;99.90;;;;;;4994866;28;20041;-79
2023/03/01 01:40:49;;;;;;;1999.90;999.90;;;0.40;99.90;;;;;;5033435;28;20033;-79
2023/03/01 01:43:26;;;;;;;1999.90;999.90;;;0.40;99.90;;;;;;5033230;28;20025;-68
2023/03/01 01:46:00;;;;;;;1999.90;999.90;;;0.50;99.90;;;;;;5024591;28;20479;-79
2023/03/01 01:48:40;;;;;;;1999.90;999.90;;;0.50;99.90;;;;;;5012886;28;20572;-68
2023/03/01 01:51:10;;;;;;;1999.90;999.90;;;0.50;99.90;;;;;;5013694;28;20018;-79
2023/03/01 01:53:37;;;;;;;1999.90;999.90;;;0.50;99.90;;;;;;5013455;28;20021;-80
2023/03/01 01:56:08;;;;;;;1999.90;999.90;;;0.50;99.90;;;;;;5013198;28;20022;-68
2023/03/01 01:58:35;;;;;;;1999.90;999.90;;;0.50;99.90;;;;;;5013248;28;20034;-68
2023/03/01 02:01:01;;;;;;;1999.90;999.90;;;0.50;99.90;;;;;;5013309;28;20030;-68
2023/03/01 02:03:36;;;;;;;1999.90;999.90;;;0.50;99.90;;;;;;5012853;28;20109;-68
2023/03/01 02:06:21;;;;;;;1999.90;999.90;;;0.50;99.90;;;;;;5013064;28;20029;-79
2023/03/01 02:08:49;;;;;;;1999.90;999.90;;;0.50;99.90;;;;;;5012726;28;20022;-68
2023/03/01 02:11:15;;;;;;;1999.90;999.90;;;0.60;99.90;;;;;;5012966;28;20030;-69
2023/03/01 02:13:41;;;;;;;1999.90;999.90;;;0.60;99.90;;;;;;5012865;28;20040;-68
2023/03/01 02:16:13;;;;;;;1999.90;999.90;;;0.60;99.90;;;;;;5012791;28;20022;-69
2023/03/01 02:18:40;;;;;;;1999.90;999.90;;;0.60;99.90;;;;;;5013203;28;20436;-80
2023/03/01 02:21:36;;;;;;;1999.90;999.90;;;0.60;99.90;;;;;;5013180;28;20107;-79
2023/03/01 02:24:27;;;;;;;1999.90;999.90;;;0.60;99.90;;;;;;5012777;28;20080;-68
2023/03/01 02:26:56;;;;;;;1999.90;999.90;;;0.60;99.90;;;;;;5013009;28;20041;-68
2023/03/01 02:29:23;;;;;;;1999.90;999.90;;;0.60;99.90;;;;;;5012461;28;20058;-68
2023/03/01 02:31:51;;;;;;;1999.90;999.90;;;0.70;99.90;;;;;;5012983;28;20026;-79
2023/03/01 02:34:20;;;;;;;1999.90;999.90;;;0.70;99.90;;;;;;5012743;28;20045;-79
2023/03/01 02:36:50;;;;;;;1999.90;999.90;;;0.70;99.90;;;;;;5012742;28;20033;-68
2023/03/01 02:39:25;;;;;;;1999.90;999.90;;;0.70;99.90;;;;;;5020142;28;20105;-69
2023/03/01 02:41:53;;;;;;;1999.90;999.90;;;0.80;99.90;;;;;;5031014;28;20051;-68
2023/03/01 02:44:20;;;;;;;1999.90;999.90;;;0.80;99.90;;;;;;5032280;28;20024;-81
2023/03/01 02:46:48;;;;;;;1999.90;999.90;;;0.80;99.90;;;;;;5016651;28;20100;-83
2023/03/01 02:49:26;;;;;;;1999.90;999.90;;;0.90;99.90;;;;;;5011575;28;20030;-71
2023/03/01 02:52:28;;;;;;;1999.90;999.90;;;0.90;99.90;;;;;;5012405;28;20048;-68
2023/03/01 02:54:59;;;;;;;1999.90;999.90;;;0.90;99.90;;;;;;5012329;28;20026;-68
2023/03/01 02:57:27;;;;;;;1999.90;999.90;;;0.90;99.90;;;;;;5012018;28;20030;-79
2023/03/01 02:59:56;;;;;;;1999.90;999.90;;;0.90;99.90;;;;;;5012268;28;20432;-79
2023/03/01 03:02:37;;;;;;;1999.90;999.90;;;0.90;99.90;;;;;;5012331;28;20034;-68
2023/03/01 03:05:05;;;;;;;1999.90;999.90;;;1.00;99.90;;;;;;4994544;28;20023;-68
2023/03/01 03:07:33;;;;;;;1999.90;999.90;;;1.00;99.90;;;;;;4992368;28;20076;-68
2023/03/01 03:09:59;;;;;;;1999.90;999.90;;;1.00;99.90;;;;;;4992716;28;20029;-68
2023/03/01 03:12:25;;;;;;;1999.90;999.90;;;1.00;99.90;;;;;;4992826;28;20035;-79
2023/03/01 03:14:50;;;;;;;1999.90;999.90;;;1.00;99.90;;;;;;4992842;28;20018;-68
2023/03/01 03:17:16;;;;;;;1999.90;999.90;;;1.00;99.90;;;;;;4992529;28;20509;-68
2023/03/01 03:19:45;;;;;;;1999.90;999.90;;;0.90;99.90;;;;;;4993137;28;20061;-68
2023/03/01 03:22:11;;;;;;;1999.90;999.90;;;1.00;99.90;;;;;;4996598;28;20390;-79
2023/03/01 03:24:37;;;;;;;1999.90;999.90;;;1.00;99.90;;;;;;5028150;28;20022;-79
2023/03/01 03:27:03;;;;;;;1999.90;999.90;;;1.00;99.90;;;;;;4996540;28;20531;-68
2023/03/01 03:29:29;;;;;;;1999.90;999.90;;;1.00;99.90;;;;;;4996252;28;20026;-68
2023/03/01 03:31:55;;;;;;;1999.90;999.90;;;1.10;99.90;;;;;;4996438;28;20084;-68
2023/03/01 03:34:20;;;;;;;1999.90;999.90;;;1.10;99.90;;;;;;4996530;28;20401;-68
2023/03/01 03:36:46;;;;;;;1999.90;999.90;;;1.10;99.90;;;;;;4996435;28;20026;-79
2023/03/01 03:39:11;;;;;;;1999.90;999.90;;;1.10;99.90;;;;;;5041878;28;20566;-78
2023/03/01 03:41:37;;;;;;;1999.90;999.90;;;1.10;99.90;;;;;;5035477;28;20033;-68
2023/03/01 03:44:03;;;;;;;1999.90;999.90;;;1.10;99.90;;;;;;5035625;28;20076;-68
2023/03/01 03:46:28;;;;;;;1999.90;999.90;;;1.20;99.90;;;;;;5022007;28;20045;-68
2023/03/01 03:48:54;;;;;;;1999.90;999.90;;;1.20;99.90;;;;;;5015862;28;20030;-79
2023/03/01 03:51:22;;;;;;;1999.90;999.90;;;1.20;99.90;;;;;;5014960;28;20084;-78
2023/03/01 03:53:48;;;;;;;1999.90;999.90;;;1.20;99.90;;;;;;5015626;28;20018;-69
2023/03/01 03:56:13;;;;;;;1999.90;999.90;;;1.20;99.90;;;;;;5015429;28;20088;-68
2023/03/01 03:58:39;;;;;;;1999.90;999.90;;;1.20;99.90;;;;;;5015614;28;20026;-68
2023/03/01 04:01:05;;;;;;;1999.90;999.90;;;1.20;99.90;;;;;;5015471;28;20061;-79
2023/03/01 04:03:31;;;;;;;1999.90;999.90;;;1.20;99.90;;;;;;5009983;28;20026;-68
2023/03/01 04:06:01;;;;;;;1999.90;999.90;;;1.20;99.90;;;;;;4995736;28;20033;-68
2023/03/01 04:08:27;;;;;;;1999.90;999.90;;;1.20;99.90;;;;;;4995636;28;20065;-68
2023/03/01 04:10:58;;;;;;;1999.90;999.90;;;1.20;99.90;;;;;;4996011;28;20023;-68
2023/03/01 04:13:25;;;;;;;1999.90;999.90;;;1.20;99.90;;;;;;4995458;28;20066;-68
2023/03/01 04:15:54;;;;;;;1999.90;999.90;;;1.20;99.90;;;;;;4995547;28;20027;-79
2023/03/01 04:18:21;;;;;;;1999.90;999.90;;;1.20;99.90;;;;;;4994930;28;20030;-79
2023/03/01 04:20:49;;;;;;;1999.90;999.90;;;1.30;99.90;;;;;;4995658;28;20030;-68
2023/03/01 04:23:20;;;;;;;1999.90;999.90;;;1.20;99.90;;;;;;4995401;28;20034;-68
2023/03/01 04:25:53;;;;;;;1999.90;999.90;;;1.20;99.90;;;;;;4995332;28;20023;-68
2023/03/01 04:28:22;;;;;;;1999.90;999.90;;;1.20;99.90;;;;;;4995229;28;20129;-79
2023/03/01 04:30:47;;;;;;;1999.90;999.90;;;1.20;99.90;;;;;;4995466;28;20018;-79
2023/03/01 04:33:13;;;;;;;1999.90;999.90;;;1.20;99.90;;;;;;4994695;28;20045;-68
2023/03/01 04:35:38;;;;;;;1999.90;999.90;;;1.20;99.90;;;;;;4995015;28;20497;-68
2023/03/01 04:38:05;;;;;;;1999.90;999.90;;;1.20;99.90;;;;;;4994655;28;20034;-68
2023/03/01 04:40:31;;;;;;;1999.90;999.90;;;1.20;99.90;;;;;;5030440;28;20034;-79
2023/03/01 04:42:57;;;;;;;1999.90;999.90;;;1.20;99.90;;;;;;5034722;28;20095;-79
2023/03/01 04:45:23;;;;;;;1999.90;999.90;;;1.20;99.90;;;;;;5019168;28;20018;-68
2023/03/01 04:47:49;;;;;;;1999.90;999.90;;;1.20;99.90;;;;;;5014357;28;20066;-68
2023/03/01 04:50:16;;;;;;;1999.90;999.90;;;1.20;99.90;;;;;;5013619;28;20025;-69
2023/03/01 04:52:44;;;;;;;1999.90;999.90;;;1.20;99.90;;;;;;5014558;28;20025;-68
2023/03/01 04:55:10;;;;;;;1999.90;999.90;;;1.20;99.90;;;;;;5014563;28;20087;-79
2023/03/01 04:57:35;;;;;;;1999.90;999.90;;;1.10;99.90;;;;;;5014354;28;20034;-79
2023/03/01 05:00:03;;;;;;;1999.90;999.90;;;1.10;99.90;;;;;;5014108;28;20551;-68
2023/03/01 05:02:29;;;;;;;1999.90;999.90;;;1.10;99.90;;;;;;5013043;28;20038;-68
2023/03/01 05:04:57;;;;;;;1999.90;999.90;;;1.10;99.90;;;;;;4997712;28;20034;-68
2023/03/01 05:07:24;;;;;;;1999.90;999.90;;;1.10;99.90;;;;;;5026046;28;20031;-79
2023/03/01 05:09:50;;;;;;;1999.90;999.90;;;1.00;99.90;;;;;;4994516;28;20021;-79
2023/03/01 05:12:15;;;;;;;1999.90;999.90;;;1.00;99.90;;;;;;4994411;28;20022;-68
2023/03/01 05:14:41;;;;;;;1999.90;999.90;;;1.00;99.90;;;;;;4994529;28;20081;-68
2023/03/01 05:17:07;;;;;;;1999.90;999.90;;;0.90;99.90;;;;;;4994570;28;20077;-69
2023/03/01 05:19:33;;;;;;;1999.90;999.90;;;0.90;99.90;;;;;;4994218;28;20030;-79
2023/03/01 05:22:03;;;;;;;1999.90;999.90;;;0.90;99.90;;;;;;4994684;28;20033;-79
2023/03/01 05:24:31;;;;;;;1999.90;999.90;;;0.90;99.90;;;;;;4994235;28;20026;-68
2023/03/01 05:26:58;;;;;;;1999.90;999.90;;;0.90;99.90;;;;;;4994532;28;20027;-68
2023/03/01 05:29:25;;;;;;;1999.90;999.90;;;0.80;99.90;;;;;;4994099;28;20041;-68
2023/03/01 05:31:53;;;;;;;1999.90;999.90;;;0.70;99.90;;;;;;4994077;28;20034;-78
2023/03/01 05:34:22;;;;;;;1999.90;999.90;;;0.70;99.90;;;;;;4994182;28;20052;-79
2023/03/01 05:36:48;;;;;;;1999.90;999.90;;;0.70;99.90;;;;;;4994171;28;20022;-79
2023/03/01 05:39:14;;;;;;;1999.90;999.90;;;0.60;99.90;;;;;;5008845;28;20362;-68
2023/03/01 05:41:40;;;;;;;1999.90;999.90;;;0.60;99.90;;;;;;5033111;28;20033;-68
2023/03/01 05:44:06;;;;;;;1999.90;999.90;;;0.50;99.90;;;;;;5033376;28;20032;-68
2023/03/01 05:46:32;;;;;;;1999.90;999.90;;;0.40;99.90;;;;;;5019181;28;20132;-79
2023/03/01 05:48:58;;;;;;;1999.90;999.90;;;0.40;99.90;;;;;;5013751;28;20065;-79
2023/03/01 05:51:23;;;;;;;1999.90;999.90;;;0.30;99.90;;;;;;5012721;28;20029;-68
2023/03/01 05:53:49;;;;;;;1999.90;999.90;;;0.30;99.90;;;;;;5013235;28;20016;-68
2023/03/01 05:56:15;;;;;;;1999.90;999.90;;;0.20;99.90;;;;;;5012859;28;20477;-68
2023/03/01 05:58:40;;;;;;;1999.90;999.90;;;0.20;99.90;;;;;;5015282;28;20072;-77
2023/03/01 06:01:12;;;;;;;1999.90;999.90;;;0.10;99.90;;;;;;5013398;28;20401;-79
2023/03/01 06:03:37;;;;;;;1999.90;999.90;;;0.10;99.90;;;;;;5006705;28;20101;-68
2023/03/01 06:06:03;;;;;;;1999.90;999.90;;;0.10;99.90;;;;;;4993285;28;20101;-68
2023/03/01 06:08:29;;;;;;;1999.90;999.90;;;0.10;99.90;;;;;;4993309;28;20490;-69
2023/03/01 06:10:54;;;;;;;1999.90;999.90;;;0.10;99.90;;;;;;4993567;28;20034;-79
2023/03/01 06:13:20;;;;;;;1999.90;999.90;;;0.20;99.90;;;;;;4993284;28;20482;-79
2023/03/01 06:15:46;;;;;;;1999.90;999.90;;;0.30;99.90;;;;;;4993410;28;20504;-79
2023/03/01 06:18:11;;;;;;;1999.90;999.90;;;0.40;99.90;;;;;;4993076;28;20026;-69
2023/03/01 06:20:37;;;;;;;1999.90;999.90;;;0.50;99.90;;;;;;4993112;28;20092;-71
2023/03/01 06:23:03;;;;;;;1999.90;999.90;;;0.50;99.90;;;;;;4993532;28;20037;-71
2023/03/01 06:25:28;;;;;;;1999.90;999.90;;;0.60;99.90;;;;;;4993192;28;20443;-78
2023/03/01 06:27:54;;;;;;;1999.90;999.90;;;0.60;99.90;;;;;;4995465;28;20156;-68
2023/03/01 06:30:21;;;;;;;1999.90;999.90;;;0.70;99.90;;;;;;5018530;28;20061;-69
2023/03/01 06:32:48;;;;;;;1999.90;999.90;;;0.70;99.90;;;;;;5012292;28;20026;-68
2023/03/01 06:35:17;;;;;;;1999.90;999.90;;;0.70;99.90;;;;;;5025125;28;20030;-69
2023/03/01 06:37:43;;;;;;;1999.90;999.90;;;0.70;99.90;;;;;;4995490;28;20026;-68
2023/03/01 06:40:11;;;;;;;1999.90;999.90;;;0.70;99.90;;;;;;5011256;28;20113;-69
2023/03/01 06:42:38;;;;;;;1999.90;999.90;;;0.70;99.90;;;;;;5012012;28;20028;-78
2023/03/01 06:45:05;;;;;;;1999.90;999.90;;;0.70;99.90;;;;;;5011698;28;20026;-79
2023/03/01 06:47:32;;;;;;;1999.90;999.90;;;0.70;99.90;;;;;;5017381;28;20508;-79
2023/03/01 06:49:59;;;;;;;1999.90;999.90;;;0.70;99.90;;;;;;5011749;28;20448;-79
2023/03/01 06:52:24;;;;;;;1999.90;999.90;;;0.70;99.90;;;;;;5011290;28;20030;-68
2023/03/01 06:54:50;;;;;;;1999.90;999.90;;;0.70;99.90;;;;;;5011511;28;20036;-79
2023/03/01 06:57:16;;;;;;;1999.90;999.90;;;0.80;99.90;;;;;;5028167;28;20104;-79
2023/03/01 06:59:42;;;;;;;1999.90;999.90;;;0.80;99.90;;;;;;5030606;28;20028;-78
2023/03/01 07:02:13;;;;;;;1999.90;999.90;;;0.80;99.90;;;;;;5013680;28;20021;-79
2023/03/01 07:04:39;;;;;;;1999.90;999.90;;;0.90;99.90;;;;;;5000337;28;20034;-80
2023/03/01 07:07:05;;;;;;;1999.90;999.90;;;0.80;99.90;;;;;;5020369;28;20361;-69
2023/03/01 07:09:31;;;;;;;1999.90;999.90;;;0.90;99.90;;;;;;5008466;28;20088;-79
2023/03/01 07:11:57;;;;;;;1999.90;999.90;;;0.90;99.90;;;;;;5006027;28;20618;-79
2023/03/01 07:14:26;;;;;;;1999.90;999.90;;;0.90;99.90;;;;;;5011891;28;20439;-80
2023/03/01 07:16:55;;;;;;;1999.90;999.90;;;1.00;99.90;;;;;;5008367;28;20026;-77
2023/03/01 07:19:21;;;;;;;1999.90;999.90;;;1.00;99.90;;;;;;4999657;28;20045;-69
2023/03/01 07:21:47;;;;;;;1999.90;999.90;;;1.20;99.90;;;;;;5006918;28;20034;-70
2023/03/01 07:24:13;;;;;;;1999.90;999.90;;;1.30;99.90;;;;;;5004956;28;20515;-77
2023/03/01 07:26:38;;;;;;;1999.90;999.90;;;1.30;99.90;;;;;;5005177;28;20038;-79
2023/03/01 07:29:06;;;;;;;1999.90;999.90;;;1.40;99.90;;;;;;5005853;28;20030;-69
2023/03/01 07:31:32;;;;;;;1999.90;999.90;;;1.40;99.90;;;;;;5000215;28;20057;-69
2023/03/01 07:33:58;;;;;;;1999.90;999.90;;;1.40;99.90;;;;;;4996038;28;20036;-79
2023/03/01 07:36:24;;;;;;;1999.90;999.90;;;1.30;99.90;;;;;;5011148;28;20116;-75
2023/03/01 07:38:50;;;;;;;1999.90;999.90;;;1.30;99.90;;;;;;5010663;28;20869;-69
2023/03/01 07:41:16;;;;;;;1999.90;999.90;;;1.30;99.90;;;;;;5005671;28;20034;-69
2023/03/01 07:43:42;;;;;;;1999.90;999.90;;;1.40;99.90;;;;;;5004433;28;20036;-70
2023/03/01 07:46:07;;;;;;;1999.90;999.90;;;1.50;99.90;;;;;;5010612;28;20092;-70
2023/03/01 07:48:33;;;;;;;1999.90;999.90;;;1.60;99.90;;;;;;5020631;28;20497;-79
2023/03/01 07:51:00;;;;;;;1999.90;999.90;;;1.60;99.90;;;;;;5005408;28;20045;-78
2023/03/01 07:53:26;;;;;;;1999.90;999.90;;;1.70;99.90;;;;;;5007385;28;20034;-79
2023/03/01 07:56:05;;;;;;;1999.90;999.90;;;1.90;99.90;;;;;;5008229;28;20095;-70
2023/03/01 07:58:30;;;;;;;1999.90;999.90;;;2.10;99.90;;;;;;5005578;28;20448;-70
2023/03/01 08:00:56;;;;;;;1999.90;999.90;;;2.30;99.90;;;;;;5009872;28;20046;-72
2023/03/01 08:03:21;;;;;;;1999.90;999.90;;;2.40;99.90;;;;;;5006832;28;20054;-81
2023/03/01 08:05:47;;;;;;;1999.90;999.90;;;2.40;99.90;;;;;;5003336;28;20030;-78
2023/03/01 08:08:12;;;;;;;1999.90;999.90;;;2.50;99.90;;;;;;5008592;28;20064;-76
2023/03/01 08:10:38;;;;;;;1999.90;999.90;;;2.70;99.90;;;;;;5004308;28;20034;-79
2023/03/01 08:13:04;;;;;;;1999.90;999.90;;;2.90;99.90;;;;;;5007481;28;20412;-80
2023/03/01 08:15:29;;;;;;;1999.90;999.90;;;3.20;99.90;;;;;;5001816;28;20508;-77
2023/03/01 08:17:55;;;;;;;1999.90;999.90;;;3.90;99.90;;;;;;5045765;28;20041;-79
2023/03/01 08:20:20;;;;;;;1999.90;999.90;;;4.10;99.90;;;;;;5017162;28;20156;-77
2023/03/01 08:22:46;;;;;;;1999.90;999.90;;;4.10;99.90;;;;;;5004588;28;20030;-70
2023/03/01 08:25:11;;;;;;;1999.90;999.90;;;4.10;99.90;;;;;;5009324;28;20121;-79
2023/03/01 08:27:37;;;;;;;1999.90;999.90;;;3.90;99.90;;;;;;5009933;28;20508;-79
2023/03/01 08:30:03;;;;;;;1999.90;999.90;;;3.90;99.90;;;;;;5005840;28;20034;-71
2023/03/01 08:32:29;;;;;;;1999.90;999.90;;;3.90;99.90;;;;;;5006358;28;20049;-78
2023/03/01 08:34:54;;;;;;;1999.90;999.90;;;4.10;99.90;;;;;;5009938;28;20061;-71
2023/03/01 08:37:20;;;;;;;1999.90;999.90;;;4.40;99.90;;;;;;5003612;28;20030;-70
2023/03/01 08:39:46;;;;;;;1999.90;999.90;;;6.30;99.90;;;;;;5010328;28;20409;-78
2023/03/01 08:42:11;;;;;;;1999.90;999.90;;;7.50;99.90;;;;;;5009653;28;20030;-78
2023/03/01 08:44:37;;;;;;;1999.90;999.90;;;8.80;99.90;;;;;;5010040;28;20080;-78
2023/03/01 08:47:04;;;;;;;1999.90;999.90;;;10.10;99.90;;;;;;5009745;28;20058;-71
2023/03/01 08:49:32;;;;;;;1999.90;999.90;;;10.40;99.10;;;;;;5010322;28;20029;-71
2023/03/01 08:51:58;;;;;;;1999.90;999.90;;;10.80;98.10;;;;;;5010135;28;20029;-78
2023/03/01 08:54:23;;;;;;;1999.90;999.90;;;11.10;97.90;;;;;;5009795;28;20562;-72
2023/03/01 08:56:49;;;;;;;1999.90;999.90;;;11.30;97.00;;;;;;5007629;28;20501;-79
2023/03/01 08:59:16;;;;;;;1999.90;999.90;;;11.60;96.50;;;;;;5010516;28;20025;-79
2023/03/01 09:01:43;;;;;;;1999.90;999.90;;;12.10;96.20;;;;;;5010720;28;20072;-72
2023/03/01 09:04:10;;;;;;;1999.90;999.90;;;12.50;95.40;;;;;;5009954;28;20623;-72
2023/03/01 09:06:36;;;;;;;1999.90;999.90;;;12.20;95.30;;;;;;5006833;28;20113;-73
2023/03/01 09:09:04;;;;;;;1999.90;999.90;;;12.10;95.30;;;;;;5017797;28;20034;-79
2023/03/01 09:11:30;;;;;;;1999.90;999.90;;;12.60;95.00;;;;;;5003890;28;20037;-78
2023/03/01 09:13:57;;;;;;;1999.90;999.90;;;12.90;94.60;;;;;;5000781;28;20026;-72
2023/03/01 09:16:23;;;;;;;1999.90;999.90;;;13.50;94.00;;;;;;5004720;28;20030;-72
2023/03/01 09:18:51;;;;;;;1999.90;999.90;;;13.80;94.00;;;;;;5000123;28;20092;-79
2023/03/01 09:21:17;;;;;;;1999.90;999.90;;;13.60;93.70;;;;;;5004874;28;20033;-72
2023/03/01 09:23:45;;;;;;;1999.90;999.90;;;13.30;93.10;;;;;;5000479;28;20038;-72
2023/03/01 09:26:16;;;;;;;1999.90;999.90;;;13.80;93.00;;;;;;5000859;28;20481;-72
2023/03/01 09:28:42;;;;;;;1999.90;999.90;;;13.80;92.30;;;;;;5004913;28;20061;-72
2023/03/01 09:31:08;;;;;;;1999.90;999.90;;;13.40;92.50;;;;;;5005280;28;20026;-79
2023/03/01 09:33:34;;;;;;;1999.90;999.90;;;14.40;92.30;;;;;;5008420;28;20040;-79
2023/03/01 09:36:03;;;;;;;1999.90;999.90;;;14.50;91.90;;;;;;5000938;28;20539;-73
2023/03/01 09:38:29;;;;;;;1999.90;999.90;;;13.90;91.90;;;;;;4995159;28;20053;-79
2023/03/01 09:40:55;;;;;;;1999.90;999.90;;;14.90;92.20;;;;;;5003781;28;20030;-72
2023/03/01 09:43:57;;;;;;;1999.90;999.90;;;15.00;91.50;;;;;;5029852;28;20041;-79
2023/03/01 09:46:25;;;;;;;1999.90;999.90;;;14.40;91.60;;;;;;5009974;28;20050;-79
2023/03/01 09:48:55;;;;;;;1999.90;999.90;;;15.20;91.60;;;;;;4999638;28;20030;-77
2023/03/01 09:51:34;;;;;;;1999.90;999.90;;;14.60;92.10;;;;;;5003888;28;20108;-71
2023/03/01 09:54:03;;;;;;;1999.90;999.90;;;12.70;92.70;;;;;;4997134;28;20030;-71
2023/03/01 09:56:46;;;;;;;1999.90;999.90;;;11.30;94.20;;;;;;5009776;28;20025;-72
2023/03/01 09:59:11;;;;;;;1999.90;999.90;;;10.10;96.40;;;;;;5008044;28;20131;-77
2023/03/01 10:01:57;;;;;;;1999.90;999.90;;;9.20;98.40;;;;;;5006043;28;20233;-71
2023/03/01 10:04:41;;;;;;;1999.90;999.90;;;8.60;98.70;;;;;;5003974;28;20050;-71
2023/03/01 10:07:10;;;;;;;1999.90;999.90;;;8.00;99.80;;;;;;5008424;28;20128;-72
2023/03/01 10:09:39;;;;;;;1999.90;999.90;;;7.70;99.90;;;;;;5003222;28;20034;-77
2023/03/01 10:12:19;;;;;;;1999.90;999.90;;;7.90;99.90;;;;;;5004816;28;20049;-71
2023/03/01 10:14:53;;;;;;;1999.90;999.90;;;7.50;99.90;;;;;;5003590;28;20117;-71
2023/03/01 10:18:03;;;;;;;1999.90;999.90;;;7.50;99.90;;;;;;5003917;28;20038;-71
2023/03/01 10:20:43;;;;;;;1999.90;999.90;;;7.40;99.90;;;;;;5010490;28;20036;-71
2023/03/01 10:23:10;;;;;;;1999.90;999.90;;;7.30;99.90;;;;;;4996247;28;20038;-76
2023/03/01 10:25:38;;;;;;;1999.90;999.90;;;7.30;99.90;;;;;;5010813;28;20037;-77
2023/03/01 10:28:30;;;;;;;1999.90;999.90;;;7.50;99.90;;;;;;5010145;28;20041;-76
2023/03/01 10:30:58;;;;;;;1999.90;999.90;;;7.50;99.90;;;;;;5012276;28;20041;-72
2023/03/01 10:33:28;;;;;;;1999.90;999.90;;;7.20;99.90;;;;;;5012952;28;20048;-71
2023/03/01 10:35:54;;;;;;;1999.90;999.90;;;7.10;99.90;;;;;;5011954;28;20377;-76
2023/03/01 10:38:20;;;;;;;1999.90;999.90;;;7.30;99.90;;;;;;5005524;28;20059;-75
2023/03/01 10:40:57;;;;;;;1999.90;999.90;;;7.00;99.90;;;;;;5010926;28;20045;-76
2023/03/01 10:43:25;;;;;;;1999.90;999.90;;;7.20;99.90;;;;;;5014405;28;20033;-75
2023/03/01 10:45:51;;;;;;;1999.90;999.90;;;7.30;99.90;;;;;;5008329;28;20061;-72
2023/03/01 10:48:23;;;;;;;1999.90;999.90;;;7.30;99.90;;;;;;5015974;28;20073;-77
2023/03/01 10:50:51;;;;;;;;;;;7.40;99.90;;;;;;5007639;28;20098;-75
2023/03/01 10:53:26;;;;;;;1999.90;999.90;;;7.50;99.90;;;;;;5007370;28;20563;-78
2023/03/01 10:56:13;;;;;;;1999.90;999.90;;;7.20;99.90;;;;;;5007979;28;20101;-76
2023/03/01 10:58:41;;;;;;;1999.90;999.90;;;7.00;99.90;;;;;;5006893;28;20030;-70
2023/03/01 11:01:26;;;;;;;1999.90;999.90;;;7.10;99.90;;;;;;5007435;28;20037;-75
2023/03/01 11:04:07;;;;;;;1999.90;999.90;;;7.30;99.90;;;;;;5004192;28;20034;-77
2023/03/01 11:06:37;;;;;;;1999.90;999.90;;;7.30;99.90;;;;;;5008449;28;20741;-78
2023/03/01 11:09:22;;;;;;;1999.90;999.90;;;7.30;99.90;;;;;;5005154;28;20544;-79
2023/03/01 11:12:14;;;;;;;1999.90;999.90;;;7.50;99.90;;;;;;5006947;28;20018;-72
2023/03/01 11:14:47;;;;;;;1999.90;999.90;;;7.40;99.90;;;;;;5037891;28;20393;-77
2023/03/01 11:17:29;;;;;;;1999.90;999.90;;;7.50;99.90;;;;;;5006098;28;20855;-77
2023/03/01 11:20:12;;;;;;;1999.90;999.90;;;7.60;99.90;;;;;;5003604;28;20038;-76
2023/03/01 11:22:47;;;;;;;1999.90;999.90;;;7.80;99.90;;;;;;5008447;28;20030;-71
2023/03/01 11:25:14;;;;;;;1999.90;999.90;;;7.90;99.90;;;;;;5006194;28;20087;-72
2023/03/01 11:27:45;;;;;;;1999.90;999.90;;;7.60;99.90;;;;;;5007981;28;20742;-71
2023/03/01 11:30:37;;;;;;;1999.90;999.90;;;7.80;99.90;;;;;;5004588;28;20105;-79
2023/03/01 11:33:20;;;;;;;1999.90;999.90;;;7.80;99.90;;;;;;5002261;28;20018;-79
2023/03/01 11:35:50;;;;;;;;;;;8.10;99.90;;;;;;5005889;28;20040;-79
2023/03/01 11:38:32;;;;;;;1999.90;999.90;;;8.10;99.90;;;;;;5001359;28;19920;-71
2023/03/01 11:41:21;;;;;;;1999.90;999.90;;;8.20;99.90;;;;;;5008421;28;20034;-79
2023/03/01 11:43:58;;;;;;;1999.90;999.90;;;8.10;99.90;;;;;;5017301;28;20485;-79
2023/03/01 11:46:33;;;;;;;1999.90;999.90;;;8.20;99.90;;;;;;5012515;28;20121;-78
2023/03/01 11:49:32;;;;;;;1999.90;999.90;;;8.20;99.90;;;;;;5011382;28;20135;-71
2023/03/01 11:52:11;;;;;;;1999.90;999.90;;;8.50;99.90;;;;;;5009730;28;20041;-71
2023/03/01 11:55:09;;;;;;;1999.90;999.90;;;8.50;99.90;;;;;;5016621;28;20022;-79
2023/03/01 11:57:41;;;;;;;1999.90;999.90;;;8.50;99.90;;;;;;5016187;28;20032;-78
2023/03/01 12:00:13;;;;;;;1999.90;999.90;;;8.80;99.90;;;;;;5016075;28;20033;-75
2023/03/01 12:02:46;;;;;;;1999.90;999.90;;;8.80;99.90;;;;;;5023329;28;20025;-72
2023/03/01 12:05:45;;;;;;;1999.90;999.90;;;8.90;99.90;;;;;;5008457;28;20035;-72
2023/03/01 12:08:13;;;;;;;1999.90;999.90;;;8.90;99.90;;;;;;5008116;28;20037;-79
2023/03/01 12:10:52;;;;;;;1999.90;999.90;;;8.90;99.90;;;;;;5016850;28;20029;-77
2023/03/01 12:13:53;;;;;;;1999.90;999.90;;;9.10;99.90;;;;;;5011378;28;20022;-72
2023/03/01 12:16:54;;;;;;;1999.90;999.90;;;9.10;99.90;;;;;;5016325;28;20038;-79
2023/03/01 12:19:37;;;;;;;1999.90;999.90;;;9.00;99.90;;;;;;5008718;28;20036;-79